Data for 09/21/2007

Time Sea-Level Adjusted Pressure Absolute Pressure Temperature Relative Humidity Dew Point   
(mb) (inHg) (mb) (inHg) (C) (F) (%) (C) (F)
00:05 1015 29.97 845 24.95 7 44.6 90 5.6 42
00:10 1015 29.97 845 24.95 7 44.5 90 5.4 41.7
00:15 1015 29.97 844 24.92 6.8 44.3 91 5.4 41.7
00:20 1015 29.97 844 24.92 6.8 44.2 92 5.6 42
00:25 1015 29.97 844 24.92 6.7 44.1 93 5.6 42.1
00:30 1015 29.97 844 24.92 6.9 44.3 90 5.4 41.7
00:35 1015 29.97 844 24.92 7 44.7 86 4.9 40.8
00:40 1015 29.97 844 24.92 7.2 45 80 4 39.2
00:45 1015 29.97 844 24.92 7.3 45.2 82 4.5 40
00:50 1015 29.97 844 24.92 7.1 44.8 82 4.2 39.6
00:55 1015 29.97 844 24.92 7.1 44.8 81 4 39.3
01:00 1015 29.97 844 24.92 7.1 44.8 80 3.8 38.9
01:05 1015 29.97 844 24.92 7.2 45 79 3.9 38.9
01:10 1015 29.97 844 24.92 7.2 45 81 4.2 39.5
01:15 1015 29.97 844 24.92 7.1 44.8 80 4 39.1
01:20 1015 29.97 844 24.92 7.2 44.9 79 3.9 39
01:25 1015 29.97 845 24.95 7.4 45.3 77 3.7 38.6
01:30 1015 29.97 845 24.95 7.5 45.4 77 3.7 38.7
01:35 1016 30 845 24.95 7.5 45.4 77 3.7 38.7
01:40 1016 30 845 24.95 7.5 45.4 77 3.7 38.7
01:45 1016 30 845 24.95 7.4 45.4 78 3.8 38.8
01:50 1016 30 845 24.95 7.5 45.4 77 3.7 38.7
01:55 1016 30 845 24.95 7.6 45.6 78 4 39.3
02:00 1016 30 845 24.95 7.6 45.7 78 4 39.2
02:05 1016 30 845 24.95 7.7 45.8 76 3.7 38.7
02:10 1016 30 845 24.95 7.7 45.9 77 3.9 39
02:15 1016 30 845 24.95 7.7 45.8 78 4 39.2
02:20 1016 30 846 24.98 7.6 45.7 77 3.8 38.8
02:25 1017 30.03 846 24.98 7.7 45.8 76 3.7 38.7
02:30 1017 30.03 846 24.98 7.6 45.7 76 3.7 38.7
02:35 1017 30.03 846 24.98 7.5 45.5 76 3.6 38.5
02:40 1017 30.03 846 24.98 7.4 45.3 72 2.8 37
02:45 1017 30.03 846 24.98 7.6 45.7 73 3.1 37.5
02:50 1017 30.03 846 24.98 7.4 45.3 73 2.9 37.3
02:55 1017 30.03 847 25.01 7.3 45.1 73 2.9 37.1
03:00 1018 30.06 847 25.01 7.3 45.1 72 2.6 36.7
03:05 1018 30.06 847 25.01 7.2 45 71 2.4 36.3
03:10 1018 30.06 847 25.01 7.3 45.1 69 2.1 35.7
03:15 1018 30.06 847 25.01 7.3 45.1 68 1.8 35.3
03:20 1018 30.06 847 25.01 7.3 45.1 69 2 35.5
03:25 1018 30.06 847 25.01 7.2 45 69 2 35.5
03:30 1018 30.06 847 25.01 7.1 44.7 70 2 35.6
03:35 1018 30.06 847 25.01 6.7 44.1 72 2 35.6
03:40 1018 30.06 847 25.01 6.5 43.7 72 1.8 35.2
03:45 1018 30.06 847 25.01 6.4 43.5 70 1.3 34.3
03:50 1018 30.06 847 25.01 6.5 43.6 70 1.3 34.4
03:55 1018 30.06 848 25.04 6.6 43.9 68 1.2 34.1
04:00 1018 30.06 848 25.04 6.7 44.1 67 1 33.8
04:05 1018 30.06 848 25.04 6.8 44.2 68 1.3 34.3
04:10 1018 30.06 848 25.04 6.5 43.7 70 1.4 34.5
04:15 1018 30.06 848 25.04 6 42.9 74 1.7 35
04:20 1019 30.09 848 25.04 5.4 41.6 77 1.6 34.9
04:25 1019 30.09 848 25.04 4.9 40.9 75 0.8 33.5
04:30 1019 30.09 848 25.04 5.2 41.4 74 0.9 33.6
04:35 1019 30.09 848 25.04 5.3 41.6 74 1 33.8
04:40 1019 30.09 848 25.04 5.4 41.8 71 0.6 33.1
04:45 1019 30.09 848 25.04 5.7 42.3 71 0.8 33.5
04:50 1019 30.09 848 25.04 5.7 42.3 70 0.7 33.3
04:55 1019 30.09 848 25.04 5.9 42.7 69 0.7 33.3
05:00 1019 30.09 848 25.04 5.9 42.5 69 0.7 33.2
05:05 1019 30.09 848 25.04 5.8 42.4 68 0.4 32.8
05:10 1019 30.09 848 25.04 5.9 42.5 69 0.5 33
05:15 1019 30.09 848 25.04 5.9 42.7 67 0.4 32.6
05:20 1019 30.09 848 25.04 5.9 42.7 67 0.3 32.5
05:25 1019 30.09 848 25.04 5.7 42.3 69 0.6 33
05:30 1019 30.09 848 25.04 5 41 73 0.6 33
05:35 1019 30.09 848 25.04 4.8 40.6 74 0.4 32.8
05:40 1019 30.09 848 25.04 4.6 40.4 74 0.3 32.6
05:45 1019 30.09 848 25.04 4.6 40.2 73 0.2 32.4
05:50 1019 30.09 848 25.04 4.5 40 70 -0.5 31
05:55 1019 30.09 848 25.04 5 41 65 -0.9 30.3
06:00 1019 30.09 848 25.04 5.4 41.8 65 -0.6 30.8
06:05 1019 30.09 848 25.04 5.6 42 66 -0.3 31.4
06:10 1019 30.09 849 25.07 5.3 41.6 71 0.4 32.7
06:15 1019 30.09 849 25.07 4.4 40 78 1 33.8
06:20 1019 30.09 849 25.07 3.6 38.5 79 0.3 32.6
06:25 1019 30.09 849 25.07 3.3 38 79 -0 32
06:30 1019 30.09 849 25.07 3.6 38.4 75 -0.5 31.1
06:35 1019 30.09 849 25.07 4.1 39.4 72 -0.5 31.2
06:40 1019 30.09 849 25.07 4.4 39.9 73 -0 31.9
06:45 1019 30.09 849 25.07 4.3 39.8 75 0.3 32.6
06:50 1019 30.09 849 25.07 3.9 39 79 0.5 33
06:55 1019 30.09 849 25.07 3.7 38.6 78 0.1 32.2
07:00 1019 30.09 849 25.07 3.8 38.9 78 0.3 32.6
07:05 1019 30.09 849 25.07 3.7 38.6 78 0.3 32.5
07:10 1019 30.09 849 25.07 3.8 38.8 76 -0.1 31.8
07:15 1019 30.09 849 25.07 3.9 39 76 0 32
07:20 1019 30.09 849 25.07 3.8 38.9 73 -0.6 30.9
07:25 1020 30.12 849 25.07 4.1 39.4 73 -0.3 31.5
07:30 1020 30.12 849 25.07 4.2 39.5 71 -0.6 31
07:35 1020 30.12 849 25.07 4.2 39.6 72 -0.4 31.3
07:40 1020 30.12 849 25.07 4.3 39.7 73 -0.1 31.7
07:45 1020 30.12 849 25.07 4.1 39.4 73 -0.4 31.3
07:50 1020 30.12 849 25.07 4.2 39.5 72 -0.5 31.2
07:55 1020 30.12 849 25.07 4.5 40.1 70 -0.5 31
08:00 1020 30.12 849 25.07 4.7 40.5 71 -0.1 31.8
08:05 1020 30.12 849 25.07 4.6 40.3 72 0.1 32.2
08:10 1020 30.12 849 25.07 4.6 40.3 73 0.2 32.4
08:15 1020 30.12 849 25.07 4.8 40.6 73 0.4 32.7
08:20 1020 30.12 849 25.07 4.8 40.6 74 0.6 33
08:25 1020 30.12 849 25.07 5 41 73 0.5 32.9
08:30 1020 30.12 849 25.07 5.2 41.4 73 0.7 33.3
08:35 1020 30.12 849 25.07 5.6 42.1 71 0.8 33.4
08:40 1020 30.12 849 25.07 5.8 42.5 71 1.1 33.9
08:45 1020 30.12 849 25.07 6.1 42.9 71 1.2 34.2
08:50 1020 30.12 849 25.07 6.4 43.5 70 1.4 34.4
08:55 1020 30.12 849 25.07 6.7 44 70 1.6 34.9
09:00 1020 30.12 849 25.07 7 44.6 68 1.4 34.5
09:05 1020 30.12 849 25.07 7.6 45.6 62 0.9 33.6
09:10 1020 30.12 849 25.07 7.9 46.3 64 1.5 34.8
09:15 1020 30.12 849 25.07 8 46.5 64 1.6 34.8
09:20 1020 30.12 849 25.07 8.2 46.8 61 1.3 34.3
09:25 1020 30.12 849 25.07 8.7 47.7 57 0.8 33.4
09:30 1020 30.12 849 25.07 8.9 47.9 58 1 33.9
09:35 1020 30.12 849 25.07 9.5 49.1 53 0.3 32.5
09:40 1020 30.12 849 25.07 9.9 49.8 56 1.5 34.6
09:45 1020 30.12 849 25.07 10.4 50.7 46 -0.6 30.9
09:50 1020 30.12 849 25.07 11 51.8 42 -1.4 29.5
09:55 1020 30.12 849 25.07 11.6 52.8 42 -0.9 30.4
10:00 1020 30.12 849 25.07 12 53.6 40 -1.2 29.9
10:05 1020 30.12 849 25.07 12.3 54.1 34 -3 26.5
10:10 1020 30.12 849 25.07 12.4 54.4 38 -1.5 29.4
10:15 1020 30.12 849 25.07 12.5 54.4 41 -0.5 31.1
10:20 1020 30.12 849 25.07 12.2 54 43 0.1 32.3
10:25 1020 30.12 849 25.07 12.1 53.8 43 -0.1 31.8
10:30 1020 30.12 849 25.07 11.4 52.6 45 -0.1 31.8
10:35 1020 30.12 849 25.07 12.1 53.9 41 -0.8 30.6
10:40 1020 30.12 849 25.07 12 53.5 37 -2.1 28.2
10:45 1020 30.12 849 25.07 12 53.5 40 -1.1 30
10:50 1020 30.12 850 25.1 12.7 54.8 36 -2 28.4
10:55 1020 30.12 850 25.1 12.7 54.8 40 -0.6 30.9
11:00 1020 30.12 850 25.1 13 55.4 36 -1.8 28.8
11:05 1020 30.12 850 25.1 13.1 55.6 37 -1.3 29.6
11:10 1020 30.12 850 25.1 11.9 53.3 40 -1.2 29.8
11:15 1020 30.12 849 25.07 11.7 53.1 41 -1 30.1
11:20 1020 30.12 849 25.07 12.5 54.6 38 -1.3 29.7
11:25 1020 30.12 849 25.07 13.3 56 35 -1.7 28.9
11:30 1020 30.12 849 25.07 14.1 57.4 32 -2.3 27.8
11:35 1020 30.12 849 25.07 13.3 55.9 35 -1.7 28.9
11:40 1020 30.12 849 25.07 13.1 55.7 34 -2.5 27.5
11:45 1019 30.09 849 25.07 12.9 55.3 34 -2.7 27.1
11:50 1019 30.09 849 25.07 14.2 57.6 31 -2.7 27.1
11:55 1019 30.09 849 25.07 14.8 58.7 31 -2.1 28.2
12:00 1019 30.09 849 25.07 14.4 57.8 30 -3 26.6
12:05 1019 30.09 849 25.07 15.2 59.4 27 -3.4 25.9
12:10 1019 30.09 849 25.07 15.1 59.2 31 -1.9 28.5
12:15 1019 30.09 849 25.07 15.1 59.2 29 -2.8 26.9
12:20 1019 30.09 849 25.07 15.7 60.3 29 -2.4 27.7
12:25 1019 30.09 849 25.07 15.9 60.6 28 -2.5 27.5
12:30 1019 30.09 848 25.04 15.7 60.2 27 -3 26.6
12:35 1019 30.09 848 25.04 16.2 61.2 27 -2.7 27.1
12:40 1019 30.09 848 25.04 16.3 61.4 25 -3.6 25.5
12:45 1019 30.09 848 25.04 15.8 60.5 27 -3.3 26.1
12:50 1019 30.09 848 25.04 15.5 60 27 -3.3 26
12:55 1019 30.09 848 25.04 16.3 61.4 26 -3.3 26.1
13:00 1019 30.09 848 25.04 16.7 62.1 24 -3.7 25.3
13:05 1019 30.09 848 25.04 16.4 61.5 24 -4.2 24.4
13:10 1019 30.09 848 25.04 16.8 62.3 24 -3.8 25.1
13:15 1019 30.09 848 25.04 17.3 63.1 25 -2.9 26.8
13:20 1019 30.09 848 25.04 17.9 64.2 23 -3.6 25.5
13:25 1019 30.09 848 25.04 17.3 63.1 23 -3.7 25.3
13:30 1019 30.09 848 25.04 17.1 62.7 24 -3.5 25.7
13:35 1019 30.09 848 25.04 16.9 62.4 26 -2.7 27.2
13:40 1019 30.09 848 25.04 17.2 63 23 -4.1 24.6
13:45 1019 30.09 848 25.04 17.5 63.6 24 -3.1 26.4
13:50 1018 30.06 848 25.04 17.4 63.2 25 -3 26.6
13:55 1018 30.06 848 25.04 18.1 64.6 24 -2.9 26.8
14:00 1018 30.06 847 25.01 17.6 63.6 25 -2.8 26.9
14:05 1018 30.06 847 25.01 17.3 63.2 24 -3.4 25.9
14:10 1018 30.06 847 25.01 18.4 65.2 23 -3 26.7
14:15 1018 30.06 847 25.01 19 66.2 22 -3 26.7
14:20 1018 30.06 847 25.01 18.8 65.8 23 -2.6 27.4
14:25 1018 30.06 847 25.01 18.8 65.8 22 -3 26.6
14:30 1018 30.06 847 25.01 19.3 66.7 24 -1.8 28.7
14:35 1018 30.06 847 25.01 19.1 66.4 23 -2.6 27.4
14:40 1018 30.06 847 25.01 18.1 64.6 23 -3 26.6
14:45 1018 30.06 847 25.01 17.8 64.1 24 -3 26.6
14:50 1018 30.06 847 25.01 17.8 64 24 -3.2 26.3
14:55 1017 30.03 847 25.01 17.5 63.5 25 -2.9 26.8
15:00 1017 30.03 847 25.01 18.1 64.6 24 -2.9 26.8
15:05 1017 30.03 846 24.98 17.9 64.2 23 -3.3 26.1
15:10 1017 30.03 846 24.98 19.1 66.5 22 -3.1 26.3
15:15 1017 30.03 846 24.98 19.2 66.5 22 -2.8 26.9
15:20 1017 30.03 846 24.98 19.4 67 22 -2.8 26.9
15:25 1017 30.03 846 24.98 18.5 65.3 23 -2.8 26.9
15:30 1017 30.03 846 24.98 18.7 65.7 22 -3.3 26
15:35 1017 30.03 846 24.98 19.1 66.3 26 -0.9 30.3
15:40 1017 30.03 846 24.98 19.8 67.7 21 -3 26.6
15:45 1017 30.03 846 24.98 19.9 67.8 21 -3.2 26.3
15:50 1016 30 846 24.98 20.6 69 19 -3.4 25.9
15:55 1016 30 846 24.98 21.4 70.6 19 -3 26.6
16:00 1016 30 846 24.98 21.5 70.6 20 -2.1 28.2
16:05 1016 30 846 24.98 21.3 70.3 19 -2.8 26.9
16:10 1016 30 845 24.95 21.3 70.3 20 -2.4 27.6
16:15 1016 30 845 24.95 22.1 71.8 18 -3.5 25.8
16:20 1016 30 845 24.95 22.6 72.8 17 -3.1 26.4
16:25 1016 30 845 24.95 22.9 73.2 17 -2.9 26.8
16:30 1016 30 845 24.95 22 71.7 19 -2.7 27.2
16:35 1016 30 845 24.95 21.4 70.4 20 -2.6 27.2
16:40 1016 30 845 24.95 20.9 69.7 20 -2.9 26.7
16:45 1016 30 845 24.95 20.8 69.4 20 -3.1 26.3
16:50 1016 30 845 24.95 20.2 68.3 21 -2.9 26.7
16:55 1016 30 845 24.95 20.9 69.6 19 -3.5 25.7
17:00 1016 30 845 24.95 21.6 70.9 19 -2.8 27
17:05 1016 30 845 24.95 22 71.5 19 -2.4 27.7
17:10 1016 30 845 24.95 22.1 71.8 19 -2.3 27.8
17:15 1016 30 845 24.95 22 71.6 19 -2.6 27.3
17:20 1015 29.97 845 24.95 21.6 71 19 -3 26.7
17:25 1016 30 845 24.95 21.4 70.6 18 -3.9 25.1
17:30 1015 29.97 845 24.95 21.3 70.3 18 -4 24.8
17:35 1015 29.97 845 24.95 21.4 70.5 18 -3.5 25.7
17:40 1015 29.97 845 24.95 21.5 70.7 17 -4.2 24.4
17:45 1015 29.97 845 24.95 21.2 70.2 18 -4 24.9
17:50 1015 29.97 844 24.92 21.3 70.4 18 -3.5 25.7
17:55 1015 29.97 844 24.92 20.9 69.7 18 -4.5 23.9
18:00 1015 29.97 844 24.92 20.8 69.5 19 -3.8 25.1
18:05 1015 29.97 844 24.92 20.9 69.7 18 -4 24.8
18:10 1015 29.97 844 24.92 20.5 68.8 19 -3.8 25.1
18:15 1015 29.97 844 24.92 20.1 68.3 20 -3.6 25.6
18:20 1015 29.97 844 24.92 19.9 67.9 19 -4.3 24.2
18:25 1015 29.97 844 24.92 19.8 67.7 20 -3.8 25.1
18:30 1015 29.97 844 24.92 19.6 67.3 20 -4 24.8
18:35 1015 29.97 844 24.92 19.3 66.8 21 -3.4 25.9
18:40 1015 29.97 844 24.92 19.1 66.4 20 -4.5 23.9
18:45 1015 29.97 844 24.92 19 66.2 20 -4.3 24.3
18:50 1015 29.97 844 24.92 18.9 66 20 -4.1 24.6
18:55 1015 29.97 844 24.92 18.8 65.9 21 -3.7 25.3
19:00 1015 29.97 844 24.92 19 66.2 23 -2.7 27.2
19:05 1015 29.97 844 24.92 19 66.2 23 -2.7 27.2
19:10 1015 29.97 844 24.92 18.7 65.6 27 -0.7 30.7
19:15 1015 29.97 844 24.92 18.4 65.2 25 -1.7 29
19:20 1015 29.97 844 24.92 18.2 64.8 32 1.6 34.9
19:25 1015 29.97 844 24.92 17.2 62.9 39 3.1 37.6
19:30 1015 29.97 844 24.92 16.1 61 41 3 37.5
19:35 1015 29.97 844 24.92 15.4 59.7 42 2.8 37
19:40 1015 29.97 844 24.92 14.7 58.5 45 3 37.4
19:45 1015 29.97 844 24.92 14.2 57.6 46 2.8 37.1
19:50 1015 29.97 844 24.92 13.9 57 47 2.9 37.2
19:55 1015 29.97 844 24.92 13.6 56.4 47 2.5 36.6
20:00 1015 29.97 844 24.92 13.5 56.3 54 4.3 39.8
20:05 1015 29.97 844 24.92 13.4 56.1 48 2.5 36.6
20:10 1015 29.97 844 24.92 13 55.4 50 2.9 37.2
20:15 1015 29.97 844 24.92 12.6 54.7 50 2.6 36.6
20:20 1015 29.97 844 24.92 12.4 54.4 51 2.5 36.6
20:25 1015 29.97 844 24.92 12 53.6 53 2.8 37
20:30 1015 29.97 844 24.92 11.7 53.1 48 1.3 34.3
20:35 1015 29.97 844 24.92 11.9 53.4 47 1.1 34
20:40 1015 29.97 844 24.92 12.3 54.1 45 0.6 33.1
20:45 1015 29.97 844 24.92 12.3 54.1 47 1.2 34.2
20:50 1015 29.97 844 24.92 11.8 53.3 46 0.7 33.2
20:55 1015 29.97 844 24.92 11.8 53.2 46 0.5 32.8
21:00 1015 29.97 844 24.92 12.1 53.7 43 -0.2 31.7
21:05 1015 29.97 844 24.92 12.4 54.3 41 -0.5 31.1
21:10 1015 29.97 844 24.92 12.6 54.6 40 -0.5 31
21:15 1015 29.97 844 24.92 12.5 54.5 40 -0.8 30.6
21:20 1015 29.97 844 24.92 12.6 54.7 37 -1.6 29.2
21:25 1015 29.97 844 24.92 12.9 55.2 38 -0.9 30.4
21:30 1015 29.97 844 24.92 12.8 55 38 -1.2 29.8
21:35 1015 29.97 844 24.92 12.9 55.2 37 -1.2 29.8
21:40 1015 29.97 844 24.92 12.7 54.9 40 -0.6 30.9
21:45 1015 29.97 844 24.92 12.5 54.5 35 -2.3 27.8
21:50 1015 29.97 844 24.92 13 55.4 39 -0.5 31.1
21:55 1015 29.97 844 24.92 12.4 54.3 42 0 32
22:00 1015 29.97 844 24.92 12 53.6 42 -0.5 31.2
22:05 1015 29.97 844 24.92 12 53.7 41 -0.9 30.4
22:10 1014 29.94 844 24.92 12 53.6 41 -0.8 30.5
22:15 1014 29.94 844 24.92 11.9 53.3 39 -1.5 29.3
22:20 1014 29.94 844 24.92 12 53.5 39 -1.5 29.3
22:25 1014 29.94 844 24.92 12.2 54 38 -1.5 29.4
22:30 1014 29.94 844 24.92 12.2 54 38 -1.7 29
22:35 1014 29.94 844 24.92 12.3 54.1 37 -1.8 28.7
22:40 1014 29.94 843 24.89 12.4 54.4 38 -1.5 29.2
22:45 1014 29.94 843 24.89 12.6 54.8 37 -1.7 28.9
22:50 1014 29.94 843 24.89 12.8 55.1 36 -1.9 28.6
22:55 1014 29.94 843 24.89 12.8 55.1 37 -1.4 29.5
23:00 1014 29.94 843 24.89 12.8 55 36 -1.9 28.5
23:05 1014 29.94 843 24.89 13.1 55.5 37 -1.2 29.8
23:10 1014 29.94 843 24.89 13.1 55.5 36 -1.8 28.8
23:15 1014 29.94 843 24.89 13.1 55.5 39 -0.6 30.9
23:20 1014 29.94 843 24.89 12.8 55.1 40 -0.5 31.1
23:25 1014 29.94 843 24.89 12.6 54.6 40 -0.6 30.9
23:30 1014 29.94 843 24.89 12.2 54 42 -0.2 31.6
23:35 1014 29.94 843 24.89 11.3 52.4 41 -1.3 29.6
23:40 1014 29.94 843 24.89 11.3 52.4 42 -1 30.1
23:45 1014 29.94 843 24.89 11.2 52.2 41 -1.5 29.3
23:50 1014 29.94 843 24.89 11.5 52.7 38 -2.4 27.7
23:55 1014 29.94 843 24.89 12 53.5 39 -1.7 29
24:00 1014 29.94 843 24.89 12.1 53.7 37 -2.2 28.1